Detalhes do Voo

Voltar

 DETALHES DO VÔO

Piloto: GLD265 Hugo d. Aeronave: CARENADO PC12 WHITE Distância: 778NM
Origem: SBSP Destino: SBMG Duração: 3.04
Validação: Validado Tipo: Regular Matrícula: PR-GPG
ZFW: 2866 Block Fuel/Init FOB 593/0 Combustível em Voo 586
Passageiros: 8 Carga: 931 Alternativo: SBCA
Hora da Decolagem: Velocidade de Cruzeiro: 190 Nível de Voo: FL160
Regra Visual: IFR ICAO da Aeronave: PC12 Unidade de Peso: Kg
Data: 16/09/2018 Observação: Rede: VATSIM
Acidentou?: Não Comentários do Validador: Pontuação do Voo 98.736

 ROTA

ROTA PORBI1C PORBI SCB UZ10 LON
REMARKS OPR//GOLD VIRTUAL AIRLINES RMK/PIC265 RMK WWW.GOLDVIRTUALAIRLINES.COM.BR

 PENALIDADES DO VOO

Para entender como cada item é pontuado, consulte as regras de avaliação.

Nenhuma penalidade registrada para este voo.

 ANÁLISE DO POUSO

Vento durante o pouso: 39º/4 kt Proa durante o pouso: 79
V/S do Pouso: -50.75 ft/min IAS do Pouso: 62.48 kt
Força G no pouso: 1.2 G Bank no pouso: -0.5
Pitch no Pouso 1.9 Flaps no Pouso 3
Nav Lights ON Landing Lights OFF
Beacon Lights ON Strobe Lights ON

 MAPA DO VOO

 PERFIL VERTICAL DO VOO

 EVENTOS PRINCIPAIS DO VOO

DATAEVENTOIASALTITUDE
2018-09-16 19:02:35 SIM ACARS version 1.4.032636
2018-09-16 19:02:35 BOARDING32636
2018-09-16 19:06:45 STARTING ENGINE 1 32636
2018-09-16 19:09:19 FLAPS SET TO POSITION 102636
2018-09-16 19:13:34 TAXI TO THE RWY 162636
2018-09-16 19:13:34 TAXING WITH TAXI LIGHTS OFF162636
2018-09-16 19:13:44 ROLLING FOR TAKE OFF492636
2018-09-16 19:13:58 TAKE OFF942637
2018-09-16 19:14:20 GEAR UP983171
2018-09-16 19:15:15 FLAPS SET TO POSITION 2964832
2018-09-16 19:15:17 FLAPS SET TO POSITION 1984859
2018-09-16 19:15:20 FLAPS SET TO POSITION 01014920
2018-09-16 19:17:08 CRUISE1975995
2018-09-16 19:20:08 CLIMBING2016409
2018-09-16 19:24:12 LIGHTS ON ABOVE 10000 ft20310500
2018-09-16 19:31:49 CRUISE18717547
2018-09-16 19:35:19 DESCEND20417335
2018-09-16 19:37:59 CRUISE21016051
2018-09-16 22:03:28 DESCEND20515618
2018-09-16 22:08:28 CRUISE15813279
2018-09-16 22:10:38 DESCEND15912853
2018-09-16 22:11:18 CRUISE15912720
2018-09-16 22:12:28 DESCEND16012487
2018-09-16 22:12:58 CRUISE18312408
2018-09-16 22:14:08 DESCEND15311865
2018-09-16 22:16:27 LIGHTS OFF BELOW 10000 ft1849498
2018-09-16 22:21:39 CRUISE1743870
2018-09-16 22:23:59 GEAR DOWN1293838
2018-09-16 22:24:00 FLAPS SET TO POSITION 11283838
2018-09-16 22:24:00 FLAPS SET TO POSITION 21273839
2018-09-16 22:24:01 FLAPS SET TO POSITION 31263840
2018-09-16 22:25:39 CLIMBING853986
2018-09-16 22:26:09 DESCEND973786
2018-09-16 22:27:59 CLIMBING882869
2018-09-16 22:28:39 DESCEND902391
2018-09-16 22:29:29 LANDING WITH LANDING LIGHTS OFF621794
2018-09-16 22:29:29 LANDING621794
2018-09-16 22:29:56 TAXI TO THE GATE191793
2018-09-16 22:29:56 TAXI SPEED ABOVE 25 KTS191793
2018-09-16 22:30:26 STOPPING ENGINE 1 31794

 DADOS DO ACARS

DATA IAS GS ALTITUDE COMBUSTÍVEL USADO OAT FASE DO VOO
2018-09-16 19:03:35 2 0 2636 1 27 BOARDING
2018-09-16 19:04:34 2 0 2636 1 26 BOARDING
2018-09-16 19:05:34 2 0 2636 1 26 BOARDING
2018-09-16 19:06:34 2 0 2636 1 26 BOARDING
2018-09-16 19:07:34 2 0 2636 1 26 BOARDING
2018-09-16 19:08:34 2 0 2636 2 26 BOARDING
2018-09-16 19:09:34 0 5 2636 3 26 BOARDING
2018-09-16 19:10:34 0 5 2636 3 26 BOARDING
2018-09-16 19:11:34 0 0 2636 4 26 BOARDING
2018-09-16 19:12:34 0 2 2636 4 26 BOARDING
2018-09-16 19:13:35 17 11 2636 5 26 TAXI TO THE RWY
2018-09-16 19:14:34 108 109 3465 9 26 CLIMBING
2018-09-16 19:15:38 113 120 5029 13 25 CLIMBING
2018-09-16 19:16:35 171 186 5897 17 25 CLIMBING
2018-09-16 19:17:35 207 228 5994 20 25 CRUISE
2018-09-16 19:18:35 214 235 5985 24 26 CRUISE
2018-09-16 19:19:34 215 238 5980 28 26 CRUISE
2018-09-16 19:20:35 193 222 6792 32 26 CLIMBING
2018-09-16 19:21:35 200 238 7834 36 26 CLIMBING
2018-09-16 19:22:35 205 249 8852 41 26 CLIMBING
2018-09-16 19:23:35 203 251 9887 45 26 CLIMBING
2018-09-16 19:24:35 201 249 10889 50 25 CLIMBING
2018-09-16 19:25:35 198 251 11893 54 25 CLIMBING
2018-09-16 19:26:35 193 252 12892 59 26 CLIMBING
2018-09-16 19:27:35 190 252 13888 63 26 CLIMBING
2018-09-16 19:28:35 185 254 14892 67 26 CLIMBING
2018-09-16 19:29:35 181 252 15902 71 27 CLIMBING
2018-09-16 19:30:35 177 251 16897 75 27 CLIMBING
2018-09-16 19:31:35 181 250 17574 79 27 CLIMBING
2018-09-16 19:32:35 193 264 17556 82 27 CRUISE
2018-09-16 19:33:39 197 269 17555 86 27 CRUISE
2018-09-16 19:34:39 197 278 17568 90 26 CRUISE
2018-09-16 19:35:39 208 289 17138 93 26 DESCEND
2018-09-16 19:36:39 213 294 16543 97 27 DESCEND
2018-09-16 19:37:39 214 292 16032 101 27 DESCEND
2018-09-16 19:38:39 207 282 16056 104 27 CRUISE
2018-09-16 19:39:39 205 280 16057 108 27 CRUISE
2018-09-16 19:40:39 204 280 16056 112 27 CRUISE
2018-09-16 19:41:39 204 280 16057 116 27 CRUISE
2018-09-16 19:42:39 205 280 16056 120 27 CRUISE
2018-09-16 19:43:39 204 280 16056 124 27 CRUISE
2018-09-16 19:44:39 205 281 16030 128 27 CRUISE
2018-09-16 19:45:39 205 280 16027 132 27 CRUISE
2018-09-16 19:46:39 205 280 16027 135 27 CRUISE
2018-09-16 19:47:39 204 280 16027 139 27 CRUISE
2018-09-16 19:48:39 204 280 16027 143 27 CRUISE
2018-09-16 19:49:39 204 281 16027 147 27 CRUISE
2018-09-16 19:50:39 204 282 16029 151 27 CRUISE
2018-09-16 19:51:39 205 282 16027 155 27 CRUISE
2018-09-16 19:52:39 204 282 16027 159 28 CRUISE
2018-09-16 19:53:39 204 282 16027 163 28 CRUISE
2018-09-16 19:54:39 205 281 16025 166 28 CRUISE
2018-09-16 19:55:39 204 280 16028 170 28 CRUISE
2018-09-16 19:56:39 204 280 16027 174 28 CRUISE
2018-09-16 19:57:39 204 280 16027 178 28 CRUISE
2018-09-16 19:58:39 204 282 16027 182 27 CRUISE
2018-09-16 19:59:39 205 282 16030 186 27 CRUISE
2018-09-16 20:00:39 204 282 16027 190 28 CRUISE
2018-09-16 20:01:39 204 282 16029 193 28 CRUISE
2018-09-16 20:02:39 204 282 16029 197 28 CRUISE
2018-09-16 20:03:39 205 282 16028 201 28 CRUISE
2018-09-16 20:04:39 205 282 16028 205 27 CRUISE
2018-09-16 20:05:39 204 282 16028 209 27 CRUISE
2018-09-16 20:06:39 205 283 16027 213 27 CRUISE
2018-09-16 20:07:39 205 282 16000 217 27 CRUISE
2018-09-16 20:08:39 205 281 15999 221 27 CRUISE
2018-09-16 20:09:39 205 282 15998 224 27 CRUISE
2018-09-16 20:10:39 205 282 15998 228 27 CRUISE
2018-09-16 20:11:39 205 282 15998 232 26 CRUISE
2018-09-16 20:12:39 205 282 15998 236 26 CRUISE
2018-09-16 20:13:39 205 282 15998 240 26 CRUISE
2018-09-16 20:14:40 204 282 15998 244 26 CRUISE
2018-09-16 20:15:39 205 282 15998 248 26 CRUISE
2018-09-16 20:16:39 205 282 15998 252 26 CRUISE
2018-09-16 20:17:40 205 282 15998 255 26 CRUISE
2018-09-16 20:18:40 205 282 15998 259 26 CRUISE
2018-09-16 20:19:40 205 282 15998 263 26 CRUISE
2018-09-16 20:20:40 205 282 15998 267 26 CRUISE
2018-09-16 20:21:40 205 282 15998 271 26 CRUISE
2018-09-16 20:22:40 205 282 15998 275 26 CRUISE
2018-09-16 20:23:40 205 282 15998 279 26 CRUISE
2018-09-16 20:24:40 209 280 16000 283 25 CRUISE
2018-09-16 20:25:40 208 277 16003 287 24 CRUISE
2018-09-16 20:26:40 207 274 16001 290 23 CRUISE
2018-09-16 20:27:40 207 270 16001 294 23 CRUISE
2018-09-16 20:28:40 207 268 15998 298 23 CRUISE
2018-09-16 20:29:40 206 268 16001 302 23 CRUISE
2018-09-16 20:30:40 206 269 15998 306 23 CRUISE
2018-09-16 20:31:40 206 269 15998 310 23 CRUISE
2018-09-16 20:32:40 206 269 15998 314 23 CRUISE
2018-09-16 20:33:40 206 269 15997 318 23 CRUISE
2018-09-16 20:34:40 206 269 15998 322 23 CRUISE
2018-09-16 20:35:40 206 270 15998 326 23 CRUISE
2018-09-16 20:36:40 206 270 15998 330 23 CRUISE
2018-09-16 20:37:40 205 271 15997 334 24 CRUISE
2018-09-16 20:38:40 206 271 15998 337 24 CRUISE
2018-09-16 20:39:40 195 259 15994 341 24 CRUISE
2018-09-16 20:40:40 163 217 15993 343 24 CRUISE
2018-09-16 20:41:40 153 204 15995 345 24 CRUISE
2018-09-16 20:42:40 149 200 15996 346 24 CRUISE
2018-09-16 20:43:40 148 199 15997 348 24 CRUISE
2018-09-16 20:44:40 147 198 15998 350 24 CRUISE
2018-09-16 20:45:40 147 198 15998 352 24 CRUISE
2018-09-16 20:46:40 147 199 15998 354 24 CRUISE
2018-09-16 20:47:40 147 199 15998 355 23 CRUISE
2018-09-16 20:48:40 148 200 15998 357 23 CRUISE
2018-09-16 20:49:40 148 200 15997 359 23 CRUISE
2018-09-16 20:50:40 147 201 15998 361 23 CRUISE
2018-09-16 20:51:40 148 201 15998 363 23 CRUISE
2018-09-16 20:52:40 148 201 15998 364 23 CRUISE
2018-09-16 20:53:40 148 202 15998 366 23 CRUISE
2018-09-16 20:54:40 148 202 15998 368 23 CRUISE
2018-09-16 20:55:40 148 202 15998 370 23 CRUISE
2018-09-16 20:56:40 148 203 15998 372 23 CRUISE
2018-09-16 20:57:40 149 204 15968 373 23 CRUISE
2018-09-16 20:58:40 148 203 15968 375 23 CRUISE
2018-09-16 20:59:40 148 203 15968 377 23 CRUISE
2018-09-16 21:00:40 148 204 15968 379 23 CRUISE
2018-09-16 21:01:40 148 204 15968 381 23 CRUISE
2018-09-16 21:02:40 148 204 15968 382 23 CRUISE
2018-09-16 21:03:40 148 204 15968 384 23 CRUISE
2018-09-16 21:04:40 149 205 15956 386 22 CRUISE
2018-09-16 21:05:40 149 206 15938 388 22 CRUISE
2018-09-16 21:06:40 148 205 15939 390 22 CRUISE
2018-09-16 21:07:40 148 202 15941 391 22 CRUISE
2018-09-16 21:08:40 149 201 15941 393 22 CRUISE
2018-09-16 21:09:40 149 201 15939 395 23 CRUISE
2018-09-16 21:10:40 149 199 15940 397 23 CRUISE
2018-09-16 21:11:40 148 200 15942 399 23 CRUISE
2018-09-16 21:12:40 149 204 15913 401 23 CRUISE
2018-09-16 21:13:40 148 207 15911 402 23 CRUISE
2018-09-16 21:14:40 149 208 15911 404 23 CRUISE
2018-09-16 21:15:40 148 211 15912 406 23 CRUISE
2018-09-16 21:16:40 149 211 15910 408 23 CRUISE
2018-09-16 21:17:40 148 211 15914 410 23 CRUISE
2018-09-16 21:18:40 148 211 15911 411 23 CRUISE
2018-09-16 21:19:40 149 210 15909 413 23 CRUISE
2018-09-16 21:20:40 149 210 15918 415 22 CRUISE
2018-09-16 21:21:40 149 210 15911 417 22 CRUISE
2018-09-16 21:22:40 149 210 15910 419 22 CRUISE
2018-09-16 21:23:40 150 210 15911 420 22 CRUISE
2018-09-16 21:24:40 149 208 15913 422 22 CRUISE
2018-09-16 21:25:40 148 205 15912 424 22 CRUISE
2018-09-16 21:26:40 149 203 15911 426 22 CRUISE
2018-09-16 21:27:40 149 202 15909 428 22 CRUISE
2018-09-16 21:28:40 149 200 15910 430 22 CRUISE
2018-09-16 21:29:41 149 201 15910 431 22 CRUISE
2018-09-16 21:30:40 149 203 15911 433 22 CRUISE
2018-09-16 21:31:41 148 211 15915 435 23 CRUISE
2018-09-16 21:32:41 149 206 15913 437 22 CRUISE
2018-09-16 21:33:41 156 211 15915 439 22 CRUISE
2018-09-16 21:34:41 187 251 15912 442 22 CRUISE
2018-09-16 21:35:41 193 259 15910 445 22 CRUISE
2018-09-16 21:36:41 194 260 15909 449 22 CRUISE
2018-09-16 21:37:41 194 260 15909 452 22 CRUISE
2018-09-16 21:38:41 194 260 15909 456 22 CRUISE
2018-09-16 21:39:41 194 259 15938 459 22 CRUISE
2018-09-16 21:40:41 194 259 15938 462 22 CRUISE
2018-09-16 21:41:41 194 260 15939 466 22 CRUISE
2018-09-16 21:42:41 194 259 15939 469 22 CRUISE
2018-09-16 21:43:41 194 259 15939 472 22 CRUISE
2018-09-16 21:44:41 194 259 15939 476 22 CRUISE
2018-09-16 21:45:41 194 258 15968 479 22 CRUISE
2018-09-16 21:46:41 194 258 15974 482 21 CRUISE
2018-09-16 21:47:41 196 258 15968 486 21 CRUISE
2018-09-16 21:48:41 194 258 15968 489 21 CRUISE
2018-09-16 21:49:41 194 258 15968 492 22 CRUISE
2018-09-16 21:50:41 194 258 15968 496 22 CRUISE
2018-09-16 21:51:41 194 258 15976 499 22 CRUISE
2018-09-16 21:52:41 194 258 15998 502 22 CRUISE
2018-09-16 21:53:41 193 258 15997 506 22 CRUISE
2018-09-16 21:54:41 194 259 15998 509 22 CRUISE
2018-09-16 21:55:41 194 259 15998 512 22 CRUISE
2018-09-16 21:56:41 194 259 15998 516 22 CRUISE
2018-09-16 21:57:41 194 259 15998 519 22 CRUISE
2018-09-16 21:58:41 194 259 15997 522 22 CRUISE
2018-09-16 21:59:41 194 260 15998 526 22 CRUISE
2018-09-16 22:00:41 195 260 15998 529 22 CRUISE
2018-09-16 22:01:41 194 261 16001 532 22 CRUISE
2018-09-16 22:02:41 193 261 16000 536 22 CRUISE
2018-09-16 22:03:41 208 278 15404 539 23 DESCEND
2018-09-16 22:04:41 217 284 14406 542 23 DESCEND
2018-09-16 22:05:41 179 235 13858 544 23 DESCEND
2018-09-16 22:06:41 162 214 13641 546 23 DESCEND
2018-09-16 22:07:41 158 208 13435 548 23 DESCEND
2018-09-16 22:08:41 157 207 13235 550 23 CRUISE
2018-09-16 22:09:41 158 207 13040 551 23 CRUISE
2018-09-16 22:10:41 158 208 12844 553 23 DESCEND
2018-09-16 22:11:41 159 208 12643 555 23 CRUISE
2018-09-16 22:12:41 169 220 12451 557 23 DESCEND
2018-09-16 22:13:41 196 254 12278 560 23 CRUISE
2018-09-16 22:14:41 118 154 11265 561 23 DESCEND
2018-09-16 22:15:41 95 118 10028 561 23 DESCEND
2018-09-16 22:16:41 211 252 9239 565 23 DESCEND
2018-09-16 22:17:41 248 287 8067 569 23 DESCEND
2018-09-16 22:18:41 255 290 6882 574 23 DESCEND
2018-09-16 22:19:41 207 238 5700 576 23 DESCEND
2018-09-16 22:20:41 195 221 4504 578 23 DESCEND
2018-09-16 22:21:41 173 194 3870 580 23 CRUISE
2018-09-16 22:22:41 159 180 3875 581 23 CRUISE
2018-09-16 22:23:41 150 156 3879 583 23 CRUISE
2018-09-16 22:24:41 61 68 3792 584 22 CRUISE
2018-09-16 22:25:41 86 97 3999 586 22 CLIMBING
2018-09-16 22:26:41 98 107 3366 589 22 DESCEND
2018-09-16 22:27:42 85 94 2715 590 22 DESCEND
2018-09-16 22:28:41 88 95 2346 592 22 DESCEND
2018-09-16 22:29:41 47 52 1793 593 22 LANDED
2018-09-16 22:30:41 2 0 1793 594 22 TAXI TO THE GATE